Time;durP1;ratioP1;P1;durP2;ratioP2;P2;SDS_P1;SDS_P2;PMS_P1;PMS_P2;Temp;Humidity;BMP_temperature;BMP_pressure;BME280_temperature;BME280_humidity;BME280_pressure;Samples;Min_cycle;Max_cycle;Signal;HPM_P1;HPM_P2
2023/03/17 00:01:02;;;;;;;13.55;3.80;;;11.80;99.90;;;;;;5025805;28;20190;-64
2023/03/17 00:03:29;;;;;;;11.35;3.22;;;11.80;99.90;;;;;;5018481;28;20444;-64
2023/03/17 00:05:56;;;;;;;16.27;3.10;;;11.80;99.90;;;;;;5057089;28;20049;-64
2023/03/17 00:08:22;;;;;;;14.98;3.75;;;11.80;99.90;;;;;;5039910;28;20517;-64
2023/03/17 00:10:49;;;;;;;11.35;3.75;;;11.80;99.90;;;;;;5037092;28;20045;-64
2023/03/17 00:13:16;;;;;;;13.15;3.50;;;11.80;99.90;;;;;;5036878;28;20124;-64
2023/03/17 00:15:43;;;;;;;14.60;3.85;;;11.80;99.90;;;;;;5037213;28;20099;-64
2023/03/17 00:18:10;;;;;;;11.00;3.72;;;11.80;99.90;;;;;;5036679;28;20037;-63
2023/03/17 00:20:37;;;;;;;12.73;3.63;;;11.80;99.90;;;;;;5035511;28;20079;-64
2023/03/17 00:23:04;;;;;;;13.93;3.28;;;11.80;99.90;;;;;;5025726;28;20053;-64
2023/03/17 00:25:31;;;;;;;14.85;3.70;;;11.80;99.90;;;;;;5036938;28;20052;-64
2023/03/17 00:27:58;;;;;;;11.13;3.67;;;11.80;99.90;;;;;;5036979;28;20041;-64
2023/03/17 00:30:26;;;;;;;14.13;3.63;;;11.80;99.90;;;;;;5035526;28;20424;-64
2023/03/17 00:32:52;;;;;;;10.98;3.35;;;11.80;99.90;;;;;;5044801;28;20187;-64
2023/03/17 00:35:19;;;;;;;10.93;3.58;;;11.80;99.90;;;;;;5055191;28;20045;-64
2023/03/17 00:37:47;;;;;;;13.15;3.53;;;11.80;99.90;;;;;;5029222;28;20054;-64
2023/03/17 00:40:14;;;;;;;12.45;3.30;;;11.80;99.90;;;;;;5017089;28;20050;-64
2023/03/17 00:42:40;;;;;;;12.82;4.05;;;11.80;99.90;;;;;;5015917;28;20111;-64
2023/03/17 00:45:09;;;;;;;11.73;3.55;;;11.80;99.90;;;;;;5015745;28;20482;-64
2023/03/17 00:47:36;;;;;;;19.08;3.53;;;11.90;99.90;;;;;;5015118;28;20116;-64
2023/03/17 00:50:03;;;;;;;8.48;3.50;;;11.90;99.90;;;;;;5015214;28;20048;-64
2023/03/17 00:52:30;;;;;;;10.45;3.47;;;11.90;99.90;;;;;;5016648;28;20034;-64
2023/03/17 00:54:57;;;;;;;12.43;3.70;;;11.90;99.90;;;;;;5016681;28;20385;-64
2023/03/17 00:57:24;;;;;;;12.52;3.30;;;11.90;99.90;;;;;;5024889;28;20057;-64
2023/03/17 00:59:51;;;;;;;10.27;3.15;;;11.90;99.90;;;;;;5035312;28;20091;-63
2023/03/17 01:02:18;;;;;;;14.05;3.70;;;11.90;99.90;;;;;;5033761;28;20489;-64
2023/03/17 01:04:45;;;;;;;12.73;3.13;;;11.90;99.90;;;;;;5036134;28;20046;-64
2023/03/17 01:07:25;;;;;;;8.77;2.92;;;12.00;99.90;;;;;;5035982;28;20041;-64
2023/03/17 01:09:51;;;;;;;10.65;3.30;;;12.00;99.90;;;;;;5035142;28;20136;-64
2023/03/17 01:12:19;;;;;;;8.00;2.83;;;12.00;99.90;;;;;;5036304;28;20117;-64
2023/03/17 01:14:48;;;;;;;12.48;4.18;;;12.00;99.90;;;;;;5036324;28;20045;-64
2023/03/17 01:17:15;;;;;;;10.20;3.33;;;12.00;99.90;;;;;;5034859;28;20476;-64
2023/03/17 01:19:43;;;;;;;15.63;4.55;;;12.00;99.90;;;;;;5035676;28;20047;-64
2023/03/17 01:22:10;;;;;;;12.27;3.70;;;12.00;99.90;;;;;;5035699;28;20485;-64
2023/03/17 01:24:37;;;;;;;10.23;3.53;;;12.00;99.90;;;;;;5034330;28;20049;-64
2023/03/17 01:27:04;;;;;;;10.75;3.33;;;12.00;99.90;;;;;;5034446;28;20056;-64
2023/03/17 01:29:31;;;;;;;10.27;3.92;;;12.00;99.90;;;;;;5035694;28;20387;-65
2023/03/17 01:31:58;;;;;;;11.10;4.07;;;12.00;99.90;;;;;;5036027;28;20049;-64
2023/03/17 01:34:25;;;;;;;13.52;4.18;;;12.00;99.90;;;;;;5035330;28;20072;-64
2023/03/17 01:36:52;;;;;;;11.95;4.13;;;12.10;99.90;;;;;;5035786;28;20048;-64
2023/03/17 01:39:19;;;;;;;13.40;4.63;;;12.00;99.90;;;;;;5034529;28;20041;-64
2023/03/17 01:41:46;;;;;;;8.93;3.80;;;12.10;99.90;;;;;;5034465;28;20084;-64
2023/03/17 01:44:13;;;;;;;12.85;4.18;;;12.10;99.90;;;;;;5035138;28;20041;-64
2023/03/17 01:46:39;;;;;;;13.80;4.30;;;12.00;99.90;;;;;;5033926;28;20400;-64
2023/03/17 01:49:06;;;;;;;14.57;4.82;;;12.00;99.90;;;;;;5035633;28;20042;-64
2023/03/17 01:51:33;;;;;;;11.70;4.57;;;12.00;99.90;;;;;;5035006;28;20455;-64
2023/03/17 01:54:00;;;;;;;14.45;4.85;;;12.00;99.90;;;;;;5035086;28;20041;-65
2023/03/17 01:56:27;;;;;;;11.77;4.28;;;12.00;99.90;;;;;;5033551;28;20037;-64
2023/03/17 01:58:55;;;;;;;12.85;4.05;;;12.00;99.90;;;;;;5033666;28;20531;-64
2023/03/17 02:01:22;;;;;;;12.50;4.25;;;12.00;99.90;;;;;;5035137;28;20045;-64
2023/03/17 02:03:49;;;;;;;10.93;4.25;;;12.00;99.90;;;;;;5035069;28;20037;-64
2023/03/17 02:06:17;;;;;;;11.30;4.57;;;12.00;99.90;;;;;;5033928;28;20111;-64
2023/03/17 02:08:45;;;;;;;12.27;4.80;;;12.00;99.90;;;;;;5033592;28;20041;-64
2023/03/17 02:11:13;;;;;;;11.73;4.57;;;12.00;99.90;;;;;;5034869;28;20128;-64
2023/03/17 02:13:40;;;;;;;12.60;4.93;;;12.00;99.90;;;;;;5034357;28;20042;-64
2023/03/17 02:16:07;;;;;;;11.18;4.07;;;12.00;99.90;;;;;;5034758;28;20049;-64
2023/03/17 02:18:34;;;;;;;16.88;4.25;;;12.00;99.90;;;;;;5034420;28;20037;-64
2023/03/17 02:21:01;;;;;;;14.57;4.75;;;11.90;99.90;;;;;;5033527;28;20044;-64
2023/03/17 02:23:28;;;;;;;11.05;4.63;;;12.00;99.90;;;;;;5034708;28;20057;-64
2023/03/17 02:25:54;;;;;;;12.55;4.70;;;12.00;99.90;;;;;;5034465;28;20046;-64
2023/03/17 02:28:21;;;;;;;12.77;4.70;;;11.90;99.90;;;;;;5034828;28;20073;-64
2023/03/17 02:30:48;;;;;;;12.13;4.40;;;12.00;99.90;;;;;;5034342;28;20052;-64
2023/03/17 02:33:16;;;;;;;12.60;4.45;;;12.00;99.90;;;;;;5034398;28;20411;-64
2023/03/17 02:35:43;;;;;;;12.85;5.15;;;12.00;99.90;;;;;;5034554;28;20511;-64
2023/03/17 02:38:10;;;;;;;11.10;4.53;;;12.00;99.90;;;;;;5034694;28;20049;-63
2023/03/17 02:40:37;;;;;;;14.43;4.60;;;12.00;99.90;;;;;;5034260;28;20108;-64
2023/03/17 02:43:04;;;;;;;11.73;4.90;;;12.00;99.90;;;;;;5034098;28;20515;-64
2023/03/17 02:45:31;;;;;;;12.68;4.68;;;12.00;99.90;;;;;;5034474;28;20432;-64
2023/03/17 02:47:58;;;;;;;10.90;4.43;;;12.00;99.90;;;;;;5034498;28;20049;-64
2023/03/17 02:50:24;;;;;;;11.07;4.53;;;12.00;99.90;;;;;;5034516;28;20037;-64
2023/03/17 02:52:51;;;;;;;12.15;4.72;;;12.00;99.90;;;;;;5034300;28;20091;-64
2023/03/17 02:55:18;;;;;;;9.73;3.88;;;12.00;99.90;;;;;;5033939;28;20604;-64
2023/03/17 02:57:44;;;;;;;8.00;4.05;;;12.00;99.90;;;;;;5033956;28;20072;-64
2023/03/17 03:00:13;;;;;;;8.93;4.38;;;12.00;99.90;;;;;;5034119;28;20040;-64
2023/03/17 03:02:39;;;;;;;8.23;3.67;;;12.00;99.90;;;;;;5034131;28;20037;-64
2023/03/17 03:05:07;;;;;;;9.40;3.40;;;12.00;99.90;;;;;;5034245;28;20042;-64
2023/03/17 03:07:34;;;;;;;9.43;3.75;;;12.00;99.90;;;;;;5033571;28;20483;-64
2023/03/17 03:10:01;;;;;;;11.88;3.33;;;12.00;99.90;;;;;;5033647;28;20506;-64
2023/03/17 03:12:27;;;;;;;7.57;3.38;;;12.00;99.90;;;;;;5034000;28;20073;-64
2023/03/17 03:14:54;;;;;;;8.50;3.30;;;12.00;99.90;;;;;;5033671;28;20038;-64
2023/03/17 03:17:21;;;;;;;8.38;3.63;;;12.00;99.90;;;;;;5033967;28;20041;-64
2023/03/17 03:19:48;;;;;;;11.02;4.00;;;12.00;99.90;;;;;;5034053;28;20096;-64
2023/03/17 03:22:15;;;;;;;10.80;4.10;;;12.00;99.90;;;;;;5033753;28;20049;-64
2023/03/17 03:24:42;;;;;;;10.85;4.40;;;12.00;99.90;;;;;;5032054;28;20045;-64
2023/03/17 03:27:09;;;;;;;10.25;4.30;;;12.00;99.90;;;;;;5033009;28;20077;-64
2023/03/17 03:29:37;;;;;;;11.52;4.40;;;12.00;99.90;;;;;;5033321;28;20128;-64
2023/03/17 03:32:03;;;;;;;11.32;4.72;;;12.00;99.90;;;;;;5033376;28;20065;-64
2023/03/17 03:34:30;;;;;;;11.40;4.80;;;12.00;99.90;;;;;;5033092;28;20052;-64
2023/03/17 03:36:57;;;;;;;10.52;4.65;;;12.00;99.90;;;;;;5033349;28;20393;-64
2023/03/17 03:39:24;;;;;;;12.52;4.40;;;12.00;99.90;;;;;;5033649;28;20096;-64
2023/03/17 03:41:50;;;;;;;8.35;4.80;;;12.00;99.90;;;;;;5033576;28;20471;-64
2023/03/17 03:44:17;;;;;;;10.82;5.18;;;12.00;99.90;;;;;;5033204;28;20612;-64
2023/03/17 03:46:44;;;;;;;12.63;4.85;;;12.00;99.90;;;;;;5033636;28;20116;-65
2023/03/17 03:49:11;;;;;;;11.27;4.90;;;12.00;99.90;;;;;;5033264;28;20128;-64
2023/03/17 03:51:38;;;;;;;12.90;5.20;;;12.00;99.90;;;;;;5033543;28;20096;-64
2023/03/17 03:54:05;;;;;;;11.43;4.72;;;12.00;99.90;;;;;;5033308;28;20492;-65
2023/03/17 03:56:31;;;;;;;9.93;4.85;;;12.00;99.90;;;;;;5033505;28;20100;-64
2023/03/17 03:58:58;;;;;;;9.70;4.78;;;12.00;99.90;;;;;;5033754;28;20388;-64
2023/03/17 04:01:26;;;;;;;9.98;5.07;;;12.00;99.90;;;;;;5033367;28;20037;-64
2023/03/17 04:03:53;;;;;;;12.23;5.43;;;12.00;99.90;;;;;;5032047;28;20042;-64
2023/03/17 04:06:19;;;;;;;11.48;4.72;;;12.00;99.90;;;;;;5033245;28;20049;-64
2023/03/17 04:08:46;;;;;;;11.32;4.60;;;12.00;99.90;;;;;;5033528;28;20053;-64
2023/03/17 04:11:13;;;;;;;11.68;4.60;;;12.00;99.90;;;;;;5033204;28;20116;-64
2023/03/17 04:13:40;;;;;;;11.55;5.00;;;12.00;99.90;;;;;;5033351;28;20064;-64
2023/03/17 04:16:07;;;;;;;12.00;5.10;;;12.00;99.90;;;;;;5031525;28;20100;-65
2023/03/17 04:18:34;;;;;;;8.73;5.00;;;12.00;99.90;;;;;;5032886;28;20033;-61
2023/03/17 04:21:01;;;;;;;11.40;5.13;;;12.00;99.90;;;;;;5032994;28;20041;-63
2023/03/17 04:23:30;;;;;;;12.35;5.55;;;12.00;99.90;;;;;;5032561;28;20053;-63
2023/03/17 04:25:58;;;;;;;11.02;5.50;;;12.00;99.90;;;;;;5032911;28;20103;-63
2023/03/17 04:28:24;;;;;;;11.38;4.93;;;12.00;99.90;;;;;;5033435;28;20103;-63
2023/03/17 04:30:51;;;;;;;16.20;5.30;;;12.00;99.90;;;;;;5033344;28;20038;-63
2023/03/17 04:33:19;;;;;;;10.05;4.97;;;12.00;99.90;;;;;;5032674;28;20481;-63
2023/03/17 04:35:45;;;;;;;9.60;4.72;;;12.00;99.90;;;;;;5033006;28;20064;-62
2023/03/17 04:38:12;;;;;;;10.25;4.80;;;12.00;99.90;;;;;;5035746;28;20041;-64
2023/03/17 04:40:39;;;;;;;9.60;4.90;;;12.00;99.90;;;;;;5036305;28;20038;-63
2023/03/17 04:43:06;;;;;;;8.10;4.80;;;12.00;99.90;;;;;;5036651;28;20041;-63
2023/03/17 04:45:33;;;;;;;9.05;4.90;;;11.90;99.90;;;;;;5036237;28;20052;-63
2023/03/17 04:48:00;;;;;;;8.25;4.35;;;11.90;99.90;;;;;;5036827;28;20053;-63
2023/03/17 04:50:26;;;;;;;9.75;4.38;;;11.90;99.90;;;;;;5036414;28;20050;-63
2023/03/17 04:52:53;;;;;;;6.50;4.13;;;11.90;99.90;;;;;;5036193;28;20052;-63
2023/03/17 04:55:20;;;;;;;8.13;4.15;;;11.90;99.90;;;;;;5036277;28;20073;-64
2023/03/17 04:57:47;;;;;;;7.40;4.38;;;11.80;99.90;;;;;;5035116;28;20095;-63
2023/03/17 05:00:14;;;;;;;5.88;3.70;;;11.80;99.90;;;;;;5036478;28;20045;-63
2023/03/17 05:02:41;;;;;;;7.38;4.70;;;11.80;99.90;;;;;;5035159;28;20045;-63
2023/03/17 05:05:08;;;;;;;7.18;4.10;;;11.70;99.90;;;;;;5036191;28;20041;-63
2023/03/17 05:07:35;;;;;;;8.35;4.85;;;11.70;99.90;;;;;;5036015;28;20046;-64
2023/03/17 05:10:02;;;;;;;7.38;4.70;;;11.70;99.90;;;;;;5035095;28;20100;-63
2023/03/17 05:12:29;;;;;;;8.63;5.10;;;11.60;99.90;;;;;;5035641;28;20389;-63
2023/03/17 05:14:56;;;;;;;5.88;4.40;;;11.60;99.90;;;;;;5034479;28;20099;-63
2023/03/17 05:17:22;;;;;;;6.72;5.38;;;11.60;99.90;;;;;;5036047;28;20449;-63
2023/03/17 05:19:49;;;;;;;8.55;5.45;;;11.50;99.90;;;;;;5035718;28;20113;-63
2023/03/17 05:22:16;;;;;;;7.57;5.15;;;11.60;99.90;;;;;;5035492;28;20497;-63
2023/03/17 05:24:42;;;;;;;9.65;4.97;;;11.60;99.90;;;;;;5035996;28;20073;-63
2023/03/17 05:27:09;;;;;;;7.03;6.00;;;11.50;99.90;;;;;;5035814;28;20037;-63
2023/03/17 05:29:36;;;;;;;7.63;5.93;;;11.50;99.90;;;;;;5035636;28;20115;-63
2023/03/17 05:32:03;;;;;;;8.68;6.10;;;11.50;99.90;;;;;;5035818;28;20049;-63
2023/03/17 05:34:30;;;;;;;8.35;6.25;;;11.50;99.90;;;;;;5034358;28;20477;-64
2023/03/17 05:36:57;;;;;;;8.10;6.78;;;11.50;99.90;;;;;;5035509;28;20040;-63
2023/03/17 05:39:24;;;;;;;9.25;7.22;;;11.50;99.90;;;;;;5035780;28;20120;-63
2023/03/17 05:41:51;;;;;;;8.68;7.53;;;11.50;99.90;;;;;;5034352;28;20052;-64
2023/03/17 05:44:18;;;;;;;8.65;7.78;;;11.50;99.90;;;;;;5035539;28;20072;-64
2023/03/17 05:46:44;;;;;;;9.45;7.35;;;11.50;99.90;;;;;;5035491;28;20056;-64
2023/03/17 05:49:11;;;;;;;9.70;7.88;;;11.50;99.90;;;;;;5034569;28;20116;-64
2023/03/17 05:51:38;;;;;;;11.52;8.02;;;11.50;99.90;;;;;;5035274;28;20049;-63
2023/03/17 05:54:06;;;;;;;8.95;8.05;;;11.50;99.90;;;;;;5034837;28;20045;-64
2023/03/17 05:56:32;;;;;;;9.10;7.70;;;11.50;99.90;;;;;;5034972;28;20103;-63
2023/03/17 05:59:00;;;;;;;9.18;8.23;;;11.50;99.90;;;;;;5035597;28;20037;-64
2023/03/17 06:01:27;;;;;;;9.32;7.85;;;11.50;99.90;;;;;;5034932;28;20047;-64
2023/03/17 06:03:54;;;;;;;9.77;8.45;;;11.50;99.90;;;;;;5035170;28;20095;-63
2023/03/17 06:06:20;;;;;;;10.98;8.57;;;11.50;99.90;;;;;;5035290;28;20049;-63
2023/03/17 06:08:47;;;;;;;12.25;9.18;;;11.50;99.90;;;;;;5035548;28;20037;-63
2023/03/17 06:11:14;;;;;;;9.73;8.45;;;11.50;99.90;;;;;;5034917;28;20046;-63
2023/03/17 06:13:41;;;;;;;10.27;8.82;;;11.50;99.90;;;;;;5034503;28;20049;-63
2023/03/17 06:16:08;;;;;;;9.88;8.18;;;11.50;99.90;;;;;;5034569;28;20120;-63
2023/03/17 06:18:35;;;;;;;9.45;8.43;;;11.50;99.90;;;;;;5034566;28;20044;-63
2023/03/17 06:21:02;;;;;;;10.00;8.32;;;11.50;99.90;;;;;;5033755;28;20037;-64
2023/03/17 06:23:29;;;;;;;9.73;8.00;;;11.50;99.90;;;;;;5034305;28;20056;-63
2023/03/17 06:25:55;;;;;;;10.93;8.18;;;11.50;99.90;;;;;;5034495;28;20076;-63
2023/03/17 06:28:22;;;;;;;11.23;8.95;;;11.50;99.90;;;;;;5034521;28;20111;-63
2023/03/17 06:30:49;;;;;;;9.70;8.48;;;11.50;99.90;;;;;;5034659;28;20061;-63
2023/03/17 06:33:17;;;;;;;8.88;7.70;;;11.50;99.90;;;;;;5034796;28;20037;-63
2023/03/17 06:35:44;;;;;;;10.98;9.57;;;11.50;99.90;;;;;;5033587;28;20132;-63
2023/03/17 06:38:12;;;;;;;10.25;9.18;;;11.50;99.90;;;;;;5033447;28;20049;-63
2023/03/17 06:40:39;;;;;;;9.88;8.88;;;11.50;99.90;;;;;;5034304;28;20072;-64
2023/03/17 06:43:06;;;;;;;10.32;8.40;;;11.50;99.90;;;;;;5034716;28;20041;-64
2023/03/17 06:45:33;;;;;;;10.32;8.70;;;11.50;99.90;;;;;;5034417;28;20068;-62
2023/03/17 06:48:00;;;;;;;9.70;8.10;;;11.50;99.90;;;;;;5034577;28;20399;-64
2023/03/17 06:50:27;;;;;;;10.38;7.90;;;11.50;99.90;;;;;;5034703;28;20047;-64
2023/03/17 06:52:53;;;;;;;9.38;8.35;;;11.50;99.90;;;;;;5034636;28;20393;-64
2023/03/17 06:55:20;;;;;;;9.52;8.32;;;11.50;99.90;;;;;;5034564;28;20523;-63
2023/03/17 06:57:47;;;;;;;11.43;8.40;;;11.50;99.90;;;;;;5034224;28;20100;-64
2023/03/17 07:00:16;;;;;;;10.85;8.88;;;11.60;99.90;;;;;;5034356;28;20038;-64
2023/03/17 07:02:43;;;;;;;9.77;8.52;;;11.50;99.90;;;;;;5033762;28;20497;-63
2023/03/17 07:05:11;;;;;;;9.27;8.07;;;11.50;99.90;;;;;;5033900;28;20048;-63
2023/03/17 07:07:38;;;;;;;9.43;8.07;;;11.50;99.90;;;;;;5034271;28;20099;-63
2023/03/17 07:10:05;;;;;;;11.25;8.27;;;11.50;99.90;;;;;;5032519;28;20045;-63
2023/03/17 07:12:32;;;;;;;10.02;7.43;;;11.50;99.90;;;;;;5033788;28;20404;-63
2023/03/17 07:14:58;;;;;;;10.65;8.13;;;11.50;99.90;;;;;;5033585;28;20041;-63
2023/03/17 07:17:25;;;;;;;10.95;7.85;;;11.50;99.90;;;;;;5033021;28;20033;-63
2023/03/17 07:19:52;;;;;;;9.95;8.25;;;11.50;99.90;;;;;;5033979;28;20042;-65
2023/03/17 07:22:19;;;;;;;9.45;8.05;;;11.50;99.90;;;;;;5033796;28;20425;-64
2023/03/17 07:24:47;;;;;;;9.82;7.72;;;11.60;99.90;;;;;;5033668;28;20453;-64
2023/03/17 07:27:14;;;;;;;8.68;6.90;;;11.60;99.90;;;;;;5033675;28;20049;-65
2023/03/17 07:29:41;;;;;;;9.10;7.55;;;11.60;99.90;;;;;;5032943;28;20060;-62
2023/03/17 07:32:09;;;;;;;10.15;7.22;;;11.60;99.90;;;;;;5032226;28;20045;-63
2023/03/17 07:34:36;;;;;;;10.30;8.52;;;11.60;99.90;;;;;;5030728;28;20144;-62
2023/03/17 07:37:03;;;;;;;7.75;6.95;;;11.70;99.90;;;;;;5014392;28;20049;-63
2023/03/17 07:39:30;;;;;;;9.27;7.20;;;11.70;99.90;;;;;;5032079;28;20044;-63
2023/03/17 07:41:56;;;;;;;8.18;7.22;;;11.60;99.90;;;;;;5032036;28;20088;-63
2023/03/17 07:44:23;;;;;;;10.05;7.13;;;11.70;99.90;;;;;;5032414;28;20091;-63
2023/03/17 07:46:50;;;;;;;8.07;7.00;;;11.70;99.90;;;;;;5033324;28;20052;-64
2023/03/17 07:49:17;;;;;;;9.32;7.05;;;11.70;99.90;;;;;;5032030;28;20396;-63
2023/03/17 07:51:59;;;;;;;7.47;6.13;;;11.70;99.90;;;;;;5032522;28;20049;-63
2023/03/17 07:54:27;;;;;;;8.40;6.07;;;11.70;99.90;;;;;;5033072;28;20034;-63
2023/03/17 07:56:54;;;;;;;9.20;6.72;;;11.70;99.90;;;;;;5033408;28;20381;-63
2023/03/17 07:59:21;;;;;;;9.15;6.30;;;11.70;99.90;;;;;;5033664;28;20536;-64
2023/03/17 08:01:48;;;;;;;9.15;6.97;;;11.70;99.90;;;;;;5033622;28;20053;-64
2023/03/17 08:04:15;;;;;;;9.63;7.22;;;11.70;99.90;;;;;;5033212;28;20049;-64
2023/03/17 08:06:41;;;;;;;10.85;7.57;;;11.70;99.90;;;;;;5032899;28;20042;-63
2023/03/17 08:09:08;;;;;;;11.68;8.23;;;11.70;99.90;;;;;;5032310;28;20080;-63
2023/03/17 08:11:35;;;;;;;11.68;7.55;;;11.60;99.90;;;;;;5033672;28;20469;-63
2023/03/17 08:14:02;;;;;;;9.63;7.40;;;11.60;99.90;;;;;;5036045;28;20400;-63
2023/03/17 08:16:29;;;;;;;10.07;7.45;;;11.60;99.90;;;;;;5036877;28;20121;-63
2023/03/17 08:18:57;;;;;;;9.68;6.68;;;11.60;99.90;;;;;;5037027;28;20034;-63
2023/03/17 08:21:25;;;;;;;9.63;6.93;;;11.60;99.90;;;;;;5037209;28;20552;-63
2023/03/17 08:23:52;;;;;;;8.02;6.55;;;11.60;99.90;;;;;;5036862;28;20033;-63
2023/03/17 08:26:19;;;;;;;8.50;6.50;;;11.60;99.90;;;;;;5036925;28;20121;-64
2023/03/17 08:28:46;;;;;;;7.35;5.90;;;11.70;99.90;;;;;;5037283;28;20132;-63
2023/03/17 08:31:13;;;;;;;7.00;5.63;;;11.70;99.90;;;;;;5037047;28;20065;-64
2023/03/17 08:33:40;;;;;;;7.05;5.05;;;11.70;99.90;;;;;;5036956;28;20457;-64
2023/03/17 08:36:08;;;;;;;6.68;5.05;;;11.80;99.90;;;;;;5036636;28;20071;-64
2023/03/17 08:38:35;;;;;;;6.65;4.78;;;11.90;99.90;;;;;;5037024;28;20427;-64
2023/03/17 08:41:01;;;;;;;6.63;3.92;;;11.90;99.90;;;;;;5037000;28;20092;-64
2023/03/17 08:43:28;;;;;;;5.70;4.18;;;11.90;99.90;;;;;;5036903;28;20047;-64
2023/03/17 08:45:55;;;;;;;5.10;4.13;;;12.00;99.90;;;;;;5036691;28;20095;-64
2023/03/17 08:48:22;;;;;;;5.18;3.88;;;12.00;99.90;;;;;;5035468;28;20037;-64
2023/03/17 08:50:48;;;;;;;6.47;4.60;;;12.00;99.90;;;;;;5036782;28;20052;-64
2023/03/17 08:53:15;;;;;;;6.25;4.20;;;12.00;99.90;;;;;;5036693;28;20201;-64
2023/03/17 08:55:42;;;;;;;8.00;4.60;;;11.90;99.90;;;;;;5035060;28;20107;-64
2023/03/17 08:58:09;;;;;;;5.03;3.67;;;11.90;99.90;;;;;;5036360;28;20073;-63
2023/03/17 09:00:36;;;;;;;4.50;3.30;;;11.90;99.90;;;;;;5036664;28;20040;-64
2023/03/17 09:03:02;;;;;;;3.60;3.10;;;11.90;99.90;;;;;;5036504;28;20449;-64
2023/03/17 09:05:30;;;;;;;4.40;3.10;;;11.90;99.90;;;;;;5036292;28;20068;-64
2023/03/17 09:07:57;;;;;;;3.72;2.40;;;11.90;99.90;;;;;;5036032;28;20076;-64
2023/03/17 09:10:24;;;;;;;4.85;2.80;;;11.90;99.90;;;;;;5036248;28;20049;-64
2023/03/17 09:12:52;;;;;;;4.38;2.95;;;11.90;99.90;;;;;;5034795;28;20083;-63
2023/03/17 09:15:20;;;;;;;3.80;3.13;;;11.90;99.90;;;;;;5036255;28;20064;-64
2023/03/17 09:17:46;;;;;;;3.83;2.72;;;12.00;99.90;;;;;;5036024;28;20033;-64
2023/03/17 09:20:13;;;;;;;3.63;2.90;;;12.00;99.90;;;;;;5036615;28;20049;-64
2023/03/17 09:22:40;;;;;;;4.50;2.90;;;12.00;99.90;;;;;;5035489;28;20049;-64
2023/03/17 09:25:07;;;;;;;5.00;3.50;;;12.00;99.90;;;;;;5035169;28;20111;-63
2023/03/17 09:27:33;;;;;;;6.75;3.33;;;12.10;99.90;;;;;;5036324;28;20483;-64
2023/03/17 09:30:00;;;;;;;4.57;3.00;;;12.10;99.90;;;;;;5035554;28;20497;-64
2023/03/17 09:32:27;;;;;;;23.13;20.10;;;12.10;99.90;;;;;;5036287;28;20124;-64
2023/03/17 09:34:54;;;;;;;49.78;37.33;;;12.20;99.90;;;;;;5035613;28;20128;-64
2023/03/17 09:37:21;;;;;;;9.13;7.78;;;12.20;99.90;;;;;;5035945;28;20046;-63
2023/03/17 09:39:48;;;;;;;35.92;31.35;;;12.20;99.90;;;;;;5035699;28;20038;-64
2023/03/17 09:42:15;;;;;;;12.27;8.55;;;12.30;99.90;;;;;;5035784;28;20038;-63
2023/03/17 09:44:42;;;;;;;6.60;4.47;;;12.30;99.90;;;;;;5035047;28;20041;-64
2023/03/17 09:47:09;;;;;;;4.10;2.95;;;12.30;99.90;;;;;;5034109;28;20448;-64
2023/03/17 09:49:36;;;;;;;4.05;2.55;;;12.30;99.90;;;;;;5035568;28;20167;-63
2023/03/17 09:52:02;;;;;;;4.38;2.70;;;12.30;99.90;;;;;;5035658;28;20045;-63
2023/03/17 09:54:29;;;;;;;4.20;2.78;;;12.30;99.90;;;;;;5035082;28;20037;-65
2023/03/17 09:56:56;;;;;;;4.10;2.38;;;12.40;99.90;;;;;;5035674;28;20116;-64
2023/03/17 09:59:23;;;;;;;3.53;2.10;;;12.50;99.90;;;;;;5034258;28;20037;-63
2023/03/17 10:01:49;;;;;;;3.70;1.95;;;12.60;99.90;;;;;;5035023;28;20079;-63
2023/03/17 10:04:16;;;;;;;2.42;1.60;;;12.70;99.90;;;;;;5034996;28;20113;-64
2023/03/17 10:06:45;;;;;;;2.88;1.50;;;12.80;99.90;;;;;;5035410;28;20057;-64
2023/03/17 10:09:12;;;;;;;3.42;1.80;;;12.90;99.90;;;;;;5035124;28;20056;-64
2023/03/17 10:11:39;;;;;;;4.78;1.30;;;12.90;99.90;;;;;;5035251;28;20052;-64
2023/03/17 10:14:07;;;;;;;5.18;1.58;;;12.90;99.90;;;;;;5034797;28;20037;-64
2023/03/17 10:16:34;;;;;;;3.33;1.48;;;12.90;99.90;;;;;;5035010;28;20094;-63
2023/03/17 10:19:00;;;;;;;2.35;1.30;;;12.80;99.90;;;;;;5034539;28;20133;-64
2023/03/17 10:21:27;;;;;;;3.13;1.35;;;12.80;99.90;;;;;;5034992;28;20413;-64
2023/03/17 10:23:54;;;;;;;3.05;1.52;;;12.80;99.90;;;;;;5034698;28;20384;-63
2023/03/17 10:26:21;;;;;;;4.63;1.67;;;12.70;99.90;;;;;;5034621;28;20064;-63
2023/03/17 10:28:47;;;;;;;4.32;1.83;;;12.80;99.90;;;;;;5035042;28;20050;-64
2023/03/17 10:31:14;;;;;;;4.22;1.45;;;12.80;99.90;;;;;;5034710;28;20053;-64
2023/03/17 10:33:41;;;;;;;7.13;3.63;;;12.80;99.90;;;;;;5034250;28;20038;-64
2023/03/17 10:36:08;;;;;;;2.78;1.35;;;12.80;99.90;;;;;;5034319;28;20041;-64
2023/03/17 10:38:35;;;;;;;3.67;1.48;;;12.80;99.90;;;;;;5034383;28;20117;-64
2023/03/17 10:41:03;;;;;;;4.35;1.33;;;12.90;99.90;;;;;;5034245;28;20049;-64
2023/03/17 10:43:30;;;;;;;3.47;1.30;;;12.90;99.90;;;;;;5034408;28;20087;-64
2023/03/17 10:45:57;;;;;;;2.67;1.15;;;12.90;99.90;;;;;;5034693;28;20064;-64
2023/03/17 10:48:23;;;;;;;3.50;1.58;;;12.90;99.90;;;;;;5034504;28;20045;-64
2023/03/17 10:50:50;;;;;;;3.53;1.25;;;12.90;99.90;;;;;;5034530;28;20171;-64
2023/03/17 10:53:26;;;;;;;4.68;1.60;;;12.90;99.90;;;;;;5034326;28;20047;-63
2023/03/17 10:55:54;;;;;;;3.22;1.40;;;12.90;99.90;;;;;;5034355;28;20041;-64
2023/03/17 10:58:21;;;;;;;6.38;1.80;;;12.90;99.90;;;;;;5034197;28;20113;-64
2023/03/17 11:00:48;;;;;;;3.72;1.85;;;12.90;99.90;;;;;;5034495;28;20072;-64
2023/03/17 11:03:15;;;;;;;5.35;2.33;;;12.90;99.90;;;;;;5032988;28;20061;-63
2023/03/17 11:05:42;;;;;;;6.30;1.98;;;12.90;99.90;;;;;;5033646;28;20038;-63
2023/03/17 11:08:10;;;;;;;4.82;2.00;;;12.80;99.90;;;;;;5032447;28;20041;-63
2023/03/17 11:10:36;;;;;;;4.18;1.92;;;12.90;99.90;;;;;;5033645;28;20516;-63
2023/03/17 11:13:03;;;;;;;3.38;1.52;;;12.90;99.90;;;;;;5033920;28;20045;-63
2023/03/17 11:15:30;;;;;;;3.20;1.90;;;12.90;99.90;;;;;;5033590;28;20049;-64
2023/03/17 11:17:57;;;;;;;3.28;1.83;;;12.80;99.90;;;;;;5032069;28;20471;-63
2023/03/17 11:20:23;;;;;;;4.03;2.00;;;12.80;99.90;;;;;;5033719;28;20038;-63
2023/03/17 11:22:50;;;;;;;6.05;2.35;;;12.80;99.90;;;;;;5033489;28;20053;-63
2023/03/17 11:25:18;;;;;;;3.67;1.80;;;12.90;99.90;;;;;;5033542;28;20041;-63
2023/03/17 11:27:46;;;;;;;5.45;1.85;;;12.90;99.90;;;;;;5033773;28;20124;-63
2023/03/17 11:30:16;;;;;;;5.82;2.08;;;12.90;99.90;;;;;;5033453;28;20397;-63
2023/03/17 11:32:43;;;;;;;4.78;2.15;;;12.90;99.90;;;;;;5033724;28;20045;-63
2023/03/17 11:35:09;;;;;;;4.47;2.40;;;13.00;99.90;;;;;;5033713;28;20068;-63
2023/03/17 11:37:36;;;;;;;6.30;2.55;;;13.00;99.90;;;;;;5034128;28;20152;-62
2023/03/17 11:40:03;;;;;;;6.55;2.70;;;13.00;99.90;;;;;;5033727;28;20136;-63
2023/03/17 11:42:30;;;;;;;16.75;11.63;;;12.90;99.90;;;;;;5033524;28;20735;-64
2023/03/17 11:44:56;;;;;;;5.15;3.55;;;12.90;99.90;;;;;;5033315;28;20107;-63
2023/03/17 11:47:23;;;;;;;6.40;3.25;;;12.90;99.90;;;;;;5032969;28;20030;-63
2023/03/17 11:49:50;;;;;;;5.38;2.70;;;13.00;99.90;;;;;;5033391;28;20140;-63
2023/03/17 11:52:18;;;;;;;5.05;2.63;;;12.90;99.90;;;;;;5033228;28;20503;-63
2023/03/17 11:54:45;;;;;;;3.85;2.33;;;12.90;99.90;;;;;;5033223;28;20136;-63
2023/03/17 11:57:12;;;;;;;4.03;2.42;;;12.90;99.90;;;;;;5032116;28;20068;-63
2023/03/17 11:59:39;;;;;;;3.67;2.40;;;12.80;99.90;;;;;;5033101;28;20041;-63
2023/03/17 12:02:06;;;;;;;6.13;2.70;;;12.80;99.90;;;;;;5033670;28;20124;-63
2023/03/17 12:04:33;;;;;;;4.68;2.90;;;12.80;99.90;;;;;;5033586;28;20440;-64
2023/03/17 12:07:00;;;;;;;6.57;3.22;;;12.80;99.90;;;;;;5033211;28;20125;-63
2023/03/17 12:09:26;;;;;;;8.20;4.18;;;12.80;99.90;;;;;;5032930;28;20111;-63
2023/03/17 12:11:53;;;;;;;5.18;3.03;;;12.90;99.90;;;;;;5033434;28;20474;-64
2023/03/17 12:14:20;;;;;;;7.30;3.17;;;12.90;99.90;;;;;;5032825;28;20050;-63
2023/03/17 12:16:47;;;;;;;5.97;3.05;;;12.90;99.90;;;;;;5033478;28;20076;-63
2023/03/17 12:19:15;;;;;;;5.25;3.00;;;12.90;99.90;;;;;;5033197;28;20049;-63
2023/03/17 12:21:42;;;;;;;5.13;2.50;;;12.90;99.90;;;;;;5032171;28;20030;-63
2023/03/17 12:24:09;;;;;;;4.05;2.40;;;12.90;99.90;;;;;;5033436;28;20041;-63
2023/03/17 12:26:36;;;;;;;3.97;2.42;;;12.80;99.90;;;;;;5033437;28;20041;-63
2023/03/17 12:29:02;;;;;;;7.40;2.30;;;12.90;99.90;;;;;;5033315;28;20091;-64
2023/03/17 12:31:29;;;;;;;3.30;2.30;;;12.80;99.90;;;;;;5033322;28;20037;-63
2023/03/17 12:33:56;;;;;;;4.25;2.10;;;12.80;99.90;;;;;;5032777;28;20041;-63
2023/03/17 12:36:23;;;;;;;6.40;2.63;;;12.80;99.90;;;;;;5033183;28;20057;-64
2023/03/17 12:38:50;;;;;;;4.85;2.20;;;12.80;99.90;;;;;;5033259;28;20037;-63
2023/03/17 12:41:17;;;;;;;4.45;1.95;;;12.80;99.90;;;;;;5032990;28;20411;-64